Time;durP1;ratioP1;P1;durP2;ratioP2;P2;SDS_P1;SDS_P2;PMS_P1;PMS_P2;Temp;Humidity;BMP_temperature;BMP_pressure;BME280_temperature;BME280_humidity;BME280_pressure;Samples;Min_cycle;Max_cycle;Signal;HPM_P1;HPM_P2
2023/07/13 00:01:15;;;;;;;;;;;;;;;17.11;76.81;101295.41;10460265;28;19936;-63
2023/07/13 00:06:17;;;;;;;;;;;;;;;17.07;77.39;101297.44;10459917;28;19947;-63
2023/07/13 00:11:19;;;;;;;;;;;;;;;16.97;77.97;101296.47;10459629;28;19928;-63
2023/07/13 00:16:22;;;;;;;;;;;;;;;16.94;77.38;101315.22;10459374;28;19931;-63
2023/07/13 00:21:24;;;;;;;;;;;;;;;16.88;76.97;101306.78;10459261;28;20273;-63
2023/07/13 00:26:26;;;;;;;;;;;;;;;16.87;77.50;101297.16;10459171;28;19964;-63
2023/07/13 00:31:28;;;;;;;;;;;;;;;17.03;76.87;101302.13;10458829;28;20380;-63
2023/07/13 00:36:31;;;;;;;;;;;;;;;16.66;78.52;101304.91;10458730;28;19925;-63
2023/07/13 00:41:33;;;;;;;;;;;;;;;16.65;77.75;101305.84;10440709;28;19935;-63
2023/07/13 00:46:35;;;;;;;;;;;;;;;16.86;77.55;101303.41;10458846;28;19932;-63
2023/07/13 00:51:43;;;;;;;;;;;;;;;16.68;78.33;101307.44;10457435;28;19932;-63
2023/07/13 00:56:45;;;;;;;;;;;;;;;16.99;77.26;101294.53;10457836;28;20356;-63
2023/07/13 01:01:47;;;;;;;;;;;;;;;17.16;77.29;101294.06;10456778;28;19931;-63
2023/07/13 01:06:50;;;;;;;;;;;;;;;16.79;79.25;101306.59;10456379;28;19929;-63
2023/07/13 01:11:52;;;;;;;;;;;;;;;16.87;79.91;101307.72;10456533;28;20376;-63
2023/07/13 01:16:54;;;;;;;;;;;;;;;16.98;77.83;101309.56;10457273;28;19925;-63
2023/07/13 01:21:57;;;;;;;;;;;;;;;16.58;80.79;101307.25;10456139;28;19924;-63
2023/07/13 01:26:59;;;;;;;;;;;;;;;16.44;79.74;101305.66;10457161;28;19925;-63
2023/07/13 01:32:01;;;;;;;;;;;;;;;16.48;80.49;101319.47;10472385;28;19971;-63
2023/07/13 01:37:04;;;;;;;;;;;;;;;16.72;80.45;101314.97;10456668;28;20272;-63
2023/07/13 01:42:06;;;;;;;;;;;;;;;16.67;79.97;101309.19;10455562;28;20364;-63
2023/07/13 01:47:09;;;;;;;;;;;;;;;16.20;82.83;101312.72;10456680;28;20015;-63
2023/07/13 01:52:11;;;;;;;;;;;;;;;16.28;82.16;101305.94;10456757;28;19924;-63
2023/07/13 01:57:14;;;;;;;;;;;;;;;16.08;84.52;101304.75;10456268;28;19924;-63
2023/07/13 02:02:16;;;;;;;;;;;;;;;16.46;82.63;101309.03;10459718;28;19925;-63
2023/07/13 02:07:18;;;;;;;;;;;;;;;16.46;82.31;101310.84;10464420;28;20265;-63
2023/07/13 02:12:21;;;;;;;;;;;;;;;16.12;84.64;101314.16;10464585;28;20007;-63
2023/07/13 02:17:23;;;;;;;;;;;;;;;16.46;82.57;101308.19;10464077;28;19931;-63
2023/07/13 02:22:25;;;;;;;;;;;;;;;16.10;83.94;101312.56;10463974;28;20358;-64
2023/07/13 02:27:28;;;;;;;;;;;;;;;16.18;85.08;101302.28;10463886;28;19929;-63
2023/07/13 02:32:30;;;;;;;;;;;;;;;16.20;84.55;101313.56;10463550;28;19929;-63
2023/07/13 02:37:32;;;;;;;;;;;;;;;16.13;85.78;101313.16;10463462;28;19925;-63
2023/07/13 02:42:34;;;;;;;;;;;;;;;15.98;85.78;101320.41;10463204;28;19925;-63
2023/07/13 02:47:40;;;;;;;;;;;;;;;15.84;87.26;101323.19;10478237;28;19935;-63
2023/07/13 02:52:42;;;;;;;;;;;;;;;15.98;86.91;101323.03;10478186;28;19933;-63
2023/07/13 02:57:44;;;;;;;;;;;;;;;15.70;90.62;101318.88;10462905;28;19925;-63
2023/07/13 03:02:47;;;;;;;;;;;;;;;16.06;87.87;101327.78;10462375;28;19931;-63
2023/07/13 03:07:49;;;;;;;;;;;;;;;15.68;91.37;101333.13;10462227;28;19925;-63
2023/07/13 03:12:51;;;;;;;;;;;;;;;15.92;90.54;101339.34;10461491;28;20375;-63
2023/07/13 03:17:53;;;;;;;;;;;;;;;15.72;91.31;101338.09;10461933;28;19968;-63
2023/07/13 03:22:56;;;;;;;;;;;;;;;15.86;89.78;101350.34;10461881;28;19987;-63
2023/07/13 03:27:58;;;;;;;;;;;;;;;15.89;91.77;101349.28;10461501;28;20015;-63
2023/07/13 03:33:00;;;;;;;;;;;;;;;15.81;91.54;101352.47;10461269;28;19929;-63
2023/07/13 03:38:02;;;;;;;;;;;;;;;15.98;90.49;101353.91;10460903;28;20379;-64
2023/07/13 03:43:05;;;;;;;;;;;;;;;15.76;92.62;101352.78;10460845;28;20391;-63
2023/07/13 03:48:07;;;;;;;;;;;;;;;15.77;92.59;101361.56;10460824;28;19932;-63
2023/07/13 03:53:09;;;;;;;;;;;;;;;15.87;92.08;101361.72;10460516;28;19925;-63
2023/07/13 03:58:26;;;;;;;;;;;;;;;15.55;93.42;101360.38;10460420;28;19924;-64
2023/07/13 04:03:29;;;;;;;;;;;;;;;15.58;95.83;101364.59;10460116;28;20288;-63
2023/07/13 04:08:33;;;;;;;;;;;;;;;15.87;93.34;101369.66;10458750;28;19931;-63
2023/07/13 04:13:35;;;;;;;;;;;;;;;15.85;93.26;101363.66;10458704;28;19925;-63
2023/07/13 04:18:37;;;;;;;;;;;;;;;15.77;93.77;101374.75;10459463;28;20008;-63
2023/07/13 04:23:40;;;;;;;;;;;;;;;15.96;95.81;101380.41;10458415;28;19928;-64
2023/07/13 04:28:42;;;;;;;;;;;;;;;15.84;96.22;101375.19;10459061;28;19925;-63
2023/07/13 04:33:44;;;;;;;;;;;;;;;15.62;95.70;101381.91;10458884;28;20295;-63
2023/07/13 04:38:49;;;;;;;;;;;;;;;15.96;95.61;101383.06;10458669;28;20003;-63
2023/07/13 04:43:51;;;;;;;;;;;;;;;15.74;96.20;101391.63;10458283;28;19924;-63
2023/07/13 04:48:55;;;;;;;;;;;;;;;16.19;92.03;101396.44;10458260;28;20405;-63
2023/07/13 04:53:57;;;;;;;;;;;;;;;16.23;93.12;101392.59;10458137;28;19924;-63
2023/07/13 04:59:02;;;;;;;;;;;;;;;16.41;93.87;101397.50;10457986;28;20380;-63
2023/07/13 05:04:05;;;;;;;;;;;;;;;16.37;93.42;101399.53;10457806;28;19925;-63
2023/07/13 05:09:07;;;;;;;;;;;;;;;16.49;92.45;101403.09;10457572;28;19925;-63
2023/07/13 05:14:09;;;;;;;;;;;;;;;16.35;96.69;101415.50;10457498;28;19994;-63
2023/07/13 05:19:12;;;;;;;;;;;;;;;16.29;97.63;101425.66;10457199;28;20276;-63
2023/07/13 05:24:14;;;;;;;;;;;;;;;16.18;98.44;101430.88;10457319;28;19931;-63
2023/07/13 05:29:26;;;;;;;;;;;;;;;16.72;93.34;101436.59;10456954;28;19994;-63
2023/07/13 05:34:29;;;;;;;;;;;;;;;16.42;94.39;101434.41;10472332;28;19925;-63
2023/07/13 05:39:31;;;;;;;;;;;;;;;17.01;91.37;101430.16;10455580;28;19925;-64
2023/07/13 05:44:35;;;;;;;;;;;;;;;16.73;95.16;101445.41;10456595;28;19931;-63
2023/07/13 05:49:38;;;;;;;;;;;;;;;17.23;90.34;101437.31;10456803;28;19964;-63
2023/07/13 05:54:40;;;;;;;;;;;;;;;17.13;92.76;101445.13;10456505;28;19935;-64
2023/07/13 05:59:43;;;;;;;;;;;;;;;17.29;92.43;101442.16;10456559;28;19925;-64
2023/07/13 06:04:45;;;;;;;;;;;;;;;17.50;90.30;101452.06;10456226;28;19979;-63
2023/07/13 06:09:47;;;;;;;;;;;;;;;17.79;91.21;101448.03;10456499;28;19925;-63
2023/07/13 06:14:49;;;;;;;;;;;;;;;17.78;91.87;101458.75;10456151;28;19925;-64
2023/07/13 06:19:52;;;;;;;;;;;;;;;18.17;87.40;101465.44;10456327;28;19925;-64
2023/07/13 06:24:54;;;;;;;;;;;;;;;18.16;85.94;101471.69;10456084;28;19932;-64
2023/07/13 06:29:56;;;;;;;;;;;;;;;17.89;90.49;101472.03;10455866;28;19925;-64
2023/07/13 06:34:58;;;;;;;;;;;;;;;17.83;90.94;101473.31;10455743;28;19931;-64
2023/07/13 06:40:01;;;;;;;;;;;;;;;17.95;95.11;101474.19;10455543;28;19975;-63
2023/07/13 06:45:03;;;;;;;;;;;;;;;18.23;90.24;101485.28;10455475;28;19925;-63
2023/07/13 06:50:06;;;;;;;;;;;;;;;18.37;91.46;101489.50;10461200;28;19933;-63
2023/07/13 06:55:08;;;;;;;;;;;;;;;18.45;88.82;101489.72;10462878;28;20007;-63
2023/07/13 07:00:11;;;;;;;;;;;;;;;18.71;89.78;101495.59;10462464;28;20386;-63
2023/07/13 07:05:13;;;;;;;;;;;;;;;18.62;87.47;101496.31;10462433;28;19931;-63
2023/07/13 07:10:15;;;;;;;;;;;;;;;18.11;89.01;101495.03;10462161;28;19947;-63
2023/07/13 07:15:17;;;;;;;;;;;;;;;18.37;90.07;101506.25;10461916;28;20402;-64
2023/07/13 07:20:20;;;;;;;;;;;;;;;18.86;85.75;101501.50;10461688;28;19924;-64
2023/07/13 07:25:22;;;;;;;;;;;;;;;19.07;84.60;101508.66;10460700;28;19999;-63
2023/07/13 07:30:24;;;;;;;;;;;;;;;18.79;87.64;101510.03;10461488;28;19925;-63
2023/07/13 07:35:29;;;;;;;;;;;;;;;19.60;83.28;101505.16;10460251;28;19925;-64
2023/07/13 07:40:38;;;;;;;;;;;;;;;19.89;77.86;101497.41;10460865;28;19925;-64
2023/07/13 07:45:44;;;;;;;;;;;;;;;19.77;80.20;101507.25;10461222;28;19931;-63
2023/07/13 07:50:47;;;;;;;;;;;;;;;20.85;75.76;101505.03;10459637;28;19925;-64
2023/07/13 07:55:49;;;;;;;;;;;;;;;21.64;73.05;101493.38;10467635;23;19924;-61
2023/07/13 08:00:54;;;;;;;;;;;;;;;21.77;71.33;101495.72;10460255;28;20303;-62
2023/07/13 08:05:59;;;;;;;;;;;;;;;20.63;74.31;101501.63;10460171;28;19947;-61
2023/07/13 08:11:22;;;;;;;;;;;;;;;20.55;75.82;101501.44;10460542;28;19932;-61
2023/07/13 08:16:27;;;;;;;;;;;;;;;21.00;75.76;101506.28;10459584;28;20367;-61
2023/07/13 08:21:30;;;;;;;;;;;;;;;21.23;75.08;101501.53;10459514;28;20482;-62
2023/07/13 08:26:32;;;;;;;;;;;;;;;21.40;72.94;101502.66;10459459;28;19929;-61
2023/07/13 08:31:34;;;;;;;;;;;;;;;22.82;67.40;101500.72;10459283;28;19931;-61
2023/07/13 08:36:37;;;;;;;;;;;;;;;22.66;66.17;101505.88;10458936;28;19964;-62
2023/07/13 08:41:39;;;;;;;;;;;;;;;21.08;72.54;101498.47;10458522;28;19925;-61
2023/07/13 08:46:41;;;;;;;;;;;;;;;22.00;67.80;101499.72;10440688;28;20322;-61
2023/07/13 08:51:45;;;;;;;;;;;;;;;22.98;66.54;101505.41;10440555;28;19994;-61
2023/07/13 08:56:47;;;;;;;;;;;;;;;21.82;66.40;101509.44;10440574;28;19928;-62
2023/07/13 09:02:09;;;;;;;;;;;;;;;22.57;65.32;101499.63;10458265;28;20376;-61
2023/07/13 09:07:11;;;;;;;;;;;;;;;23.67;62.65;101491.41;10440206;28;20355;-62
2023/07/13 09:12:14;;;;;;;;;;;;;;;23.67;62.44;101492.28;10439584;28;19928;-62
2023/07/13 09:17:18;;;;;;;;;;;;;;;23.19;60.80;101506.94;10457323;28;20078;-61
2023/07/13 09:22:20;;;;;;;;;;;;;;;23.15;62.35;101509.09;10457424;28;19960;-62
2023/07/13 09:27:24;;;;;;;;;;;;;;;22.92;61.07;101497.16;10440056;28;19965;-62
2023/07/13 09:32:26;;;;;;;;;;;;;;;22.98;60.68;101516.06;10439672;28;20011;-61
2023/07/13 09:37:29;;;;;;;;;;;;;;;22.97;61.70;101516.22;10439437;28;19925;-62
2023/07/13 09:42:32;;;;;;;;;;;;;;;22.20;61.95;101507.66;10456962;28;19925;-62
2023/07/13 09:47:37;;;;;;;;;;;;;;;21.14;65.06;101518.34;10439124;28;20379;-62
2023/07/13 09:52:41;;;;;;;;;;;;;;;20.85;69.17;101521.81;10456658;28;19929;-62
2023/07/13 09:57:46;;;;;;;;;;;;;;;20.49;75.08;101529.38;10422342;28;19931;-61
2023/07/13 10:02:59;;;;;;;;;;;;;;;20.56;76.00;101522.56;10439339;28;19932;-62
2023/07/13 10:08:01;;;;;;;;;;;;;;;20.32;74.17;101516.75;10438890;28;19925;-61
2023/07/13 10:13:05;;;;;;;;;;;;;;;20.76;73.88;101523.50;10438695;28;20275;-61
2023/07/13 10:18:07;;;;;;;;;;;;;;;20.80;74.70;101525.88;10456177;28;20387;-61
2023/07/13 10:23:11;;;;;;;;;;;;;;;20.35;76.93;101540.41;10441381;28;19931;-61
2023/07/13 10:28:16;;;;;;;;;;;;;;;19.98;85.06;101554.22;10446497;28;19925;-61
2023/07/13 10:33:18;;;;;;;;;;;;;;;19.60;86.05;101551.16;10463834;28;19925;-61
2023/07/13 10:38:22;;;;;;;;;;;;;;;20.06;88.85;101535.81;10445645;28;19925;-61
2023/07/13 10:43:30;;;;;;;;;;;;;;;20.08;87.04;101551.63;10446029;28;19925;-61
2023/07/13 10:48:34;;;;;;;;;;;;;;;19.61;94.83;101579.38;10445480;28;19924;-61
2023/07/13 10:53:37;;;;;;;;;;;;;;;19.31;100.00;101585.44;10445584;28;20413;-62
2023/07/13 10:58:40;;;;;;;;;;;;;;;19.59;98.16;101584.00;10445163;28;19925;-63
2023/07/13 11:03:43;;;;;;;;;;;;;;;20.33;100.00;101567.13;10444843;28;20043;-63
2023/07/13 11:08:54;;;;;;;;;;;;;;;20.36;100.00;101577.50;10444876;28;19979;-62
2023/07/13 11:13:58;;;;;;;;;;;;;;;19.93;100.00;101605.09;10462191;28;19968;-62
2023/07/13 11:19:03;;;;;;;;;;;;;;;18.98;100.00;101605.78;10462295;28;19924;-63
2023/07/13 11:24:15;;;;;;;;;;;;;;;18.67;100.00;101594.94;10461812;28;20012;-62
2023/07/13 11:29:25;;;;;;;;;;;;;;;18.92;100.00;101591.19;10461639;28;19924;-63
2023/07/13 11:34:35;;;;;;;;;;;;;;;18.55;100.00;101598.56;10443284;28;20019;-62
2023/07/13 11:39:38;;;;;;;;;;;;;;;19.04;100.00;101599.97;10443351;28;20299;-62
2023/07/13 11:44:49;;;;;;;;;;;;;;;19.17;100.00;101599.00;10429242;28;19925;-63
2023/07/13 11:50:17;;;;;;;;;;;;;;;20.00;100.00;101600.13;10460962;28;19931;-62
2023/07/13 11:55:20;;;;;;;;;;;;;;;20.11;93.60;101597.38;10460613;28;19931;-62
2023/07/13 12:00:23;;;;;;;;;;;;;;;20.29;99.75;101605.63;10442887;28;19925;-62
2023/07/13 12:05:26;;;;;;;;;;;;;;;20.20;93.17;101603.72;10442452;28;19924;-63
2023/07/13 12:10:29;;;;;;;;;;;;;;;20.23;90.90;101595.50;10442560;28;19932;-62
2023/07/13 12:15:41;;;;;;;;;;;;;;;21.58;89.17;101588.03;10459799;28;19987;-62
2023/07/13 12:20:44;;;;;;;;;;;;;;;21.24;89.47;101591.09;10441710;28;20020;-62
2023/07/13 12:25:46;;;;;;;;;;;;;;;24.18;77.02;101578.00;10459416;28;19931;-62
2023/07/13 12:30:49;;;;;;;;;;;;;;;24.84;77.24;101576.47;10441510;28;19924;-62
2023/07/13 12:35:52;;;;;;;;;;;;;;;25.62;71.97;101568.22;10458893;28;19925;-62
2023/07/13 12:40:54;;;;;;;;;;;;;;;24.80;70.12;101563.59;10441070;28;20310;-63
2023/07/13 12:45:58;;;;;;;;;;;;;;;24.28;72.42;101561.84;10458065;28;20013;-63
2023/07/13 12:51:00;;;;;;;;;;;;;;;25.52;66.80;101563.88;10458427;28;20007;-62
2023/07/13 12:56:03;;;;;;;;;;;;;;;26.19;65.74;101568.13;10457954;28;19956;-62
2023/07/13 13:01:05;;;;;;;;;;;;;;;25.40;64.40;101554.47;10440584;28;20011;-62
2023/07/13 13:06:18;;;;;;;;;;;;;;;26.82;62.90;101552.13;10440081;28;19924;-61
2023/07/13 13:11:22;;;;;;;;;;;;;;;24.76;64.22;101554.19;10457642;28;20272;-62
2023/07/13 13:16:31;;;;;;;;;;;;;;;23.55;65.92;101558.53;10440001;28;20291;-62
2023/07/13 13:21:34;;;;;;;;;;;;;;;25.08;63.42;101556.09;10457230;28;20346;-61
2023/07/13 13:26:36;;;;;;;;;;;;;;;24.46;68.66;101556.41;10457255;28;19924;-63
2023/07/13 13:31:38;;;;;;;;;;;;;;;25.58;65.08;101552.47;10457036;28;20368;-62
2023/07/13 13:36:41;;;;;;;;;;;;;;;24.90;65.50;101558.94;10457112;28;20019;-62
2023/07/13 13:41:43;;;;;;;;;;;;;;;24.83;62.04;101553.38;10439154;28;19924;-62
2023/07/13 13:46:47;;;;;;;;;;;;;;;23.59;61.91;101567.06;10456974;28;19925;-62
2023/07/13 13:51:49;;;;;;;;;;;;;;;23.70;60.18;101557.94;10439516;28;19925;-61
2023/07/13 13:56:52;;;;;;;;;;;;;;;23.30;62.08;101565.47;10459322;28;20025;-62
2023/07/13 14:01:54;;;;;;;;;;;;;;;23.26;60.16;101560.59;10447294;28;19947;-62
2023/07/13 14:06:57;;;;;;;;;;;;;;;24.00;57.76;101564.69;10464720;28;20281;-63
2023/07/13 14:11:59;;;;;;;;;;;;;;;23.70;60.69;101574.84;10464950;28;20007;-62
2023/07/13 14:17:02;;;;;;;;;;;;;;;23.51;57.66;101575.84;10464424;28;19932;-62
2023/07/13 14:22:04;;;;;;;;;;;;;;;22.51;60.55;101555.41;10446574;28;20371;-63
2023/07/13 14:27:08;;;;;;;;;;;;;;;21.92;62.23;101573.41;10463892;28;20380;-62
2023/07/13 14:32:10;;;;;;;;;;;;;;;21.70;64.88;101578.94;10446317;28;19924;-63
2023/07/13 14:37:14;;;;;;;;;;;;;;;21.36;64.15;101580.31;10463809;28;20374;-62
2023/07/13 14:42:16;;;;;;;;;;;;;;;21.53;67.32;101590.28;10445777;28;20011;-62
2023/07/13 14:47:18;;;;;;;;;;;;;;;21.59;64.18;101584.41;10463447;28;19925;-62
2023/07/13 14:52:22;;;;;;;;;;;;;;;21.67;64.46;101584.53;10462967;28;19925;-62
2023/07/13 14:57:26;;;;;;;;;;;;;;;21.91;63.01;101585.06;10445749;28;19935;-62
2023/07/13 15:02:29;;;;;;;;;;;;;;;22.42;60.90;101591.81;10462495;28;20303;-62
2023/07/13 15:07:35;;;;;;;;;;;;;;;22.98;59.63;101584.63;10461244;28;20599;-62
2023/07/13 15:12:38;;;;;;;;;;;;;;;22.46;59.20;101585.22;10462310;28;19936;-62
2023/07/13 15:17:41;;;;;;;;;;;;;;;23.09;58.02;101584.47;10462008;28;19936;-62
2023/07/13 15:22:43;;;;;;;;;;;;;;;22.99;59.60;101589.84;10444387;28;20015;-61
2023/07/13 15:27:46;;;;;;;;;;;;;;;22.79;61.54;101590.94;10427742;28;20375;-62
2023/07/13 15:32:48;;;;;;;;;;;;;;;22.40;62.14;101594.63;10443852;28;20446;-61
2023/07/13 15:37:51;;;;;;;;;;;;;;;22.05;63.13;101605.94;10461384;28;19925;-61
2023/07/13 15:42:53;;;;;;;;;;;;;;;21.00;72.96;101641.19;10461122;28;20248;-61
2023/07/13 15:47:55;;;;;;;;;;;;;;;20.15;82.70;101653.78;10460941;28;19939;-62
2023/07/13 15:52:58;;;;;;;;;;;;;;;19.80;94.15;101634.53;10460790;28;19971;-63
2023/07/13 15:58:00;;;;;;;;;;;;;;;19.74;94.36;101635.00;10460524;28;19925;-63
2023/07/13 16:03:02;;;;;;;;;;;;;;;20.06;92.13;101626.19;10460169;28;20372;-62
2023/07/13 16:08:05;;;;;;;;;;;;;;;19.81;94.18;101630.06;10460345;28;19925;-62
2023/07/13 16:13:10;;;;;;;;;;;;;;;19.20;100.00;101635.88;10442413;28;19935;-62
2023/07/13 16:18:12;;;;;;;;;;;;;;;19.44;95.10;101636.56;10442527;28;20368;-63
2023/07/13 16:23:15;;;;;;;;;;;;;;;19.14;91.77;101623.13;10458393;28;20271;-63
2023/07/13 16:28:17;;;;;;;;;;;;;;;19.37;98.01;101624.75;10441628;28;20035;-62
2023/07/13 16:33:21;;;;;;;;;;;;;;;19.91;94.93;101628.31;10459338;28;19924;-62
2023/07/13 16:38:25;;;;;;;;;;;;;;;19.39;90.97;101633.44;10458778;28;19925;-62
2023/07/13 16:43:27;;;;;;;;;;;;;;;20.42;87.17;101622.19;10458678;28;20346;-62
2023/07/13 16:48:32;;;;;;;;;;;;;;;20.65;80.14;101616.72;10458670;28;19924;-62
2023/07/13 16:53:34;;;;;;;;;;;;;;;20.94;85.19;101616.81;10458219;28;20418;-62
2023/07/13 16:58:37;;;;;;;;;;;;;;;20.52;91.08;101603.59;10458286;28;19986;-62
2023/07/13 17:03:40;;;;;;;;;;;;;;;20.02;97.72;101627.41;10457973;28;19925;-62
2023/07/13 17:08:42;;;;;;;;;;;;;;;19.90;100.00;101629.28;10440403;28;19925;-62
2023/07/13 17:13:46;;;;;;;;;;;;;;;20.27;100.00;101618.19;10457742;28;19947;-62
2023/07/13 17:18:48;;;;;;;;;;;;;;;20.31;95.61;101621.41;10457377;28;20390;-62
2023/07/13 17:23:51;;;;;;;;;;;;;;;20.47;98.34;101618.28;10457351;28;19924;-62
2023/07/13 17:28:54;;;;;;;;;;;;;;;20.17;100.00;101622.59;10457462;28;19931;-62
2023/07/13 17:33:57;;;;;;;;;;;;;;;20.35;100.00;101620.19;10456713;28;20265;-62
2023/07/13 17:38:59;;;;;;;;;;;;;;;20.02;100.00;101624.75;10457066;28;19925;-62
2023/07/13 17:44:01;;;;;;;;;;;;;;;20.39;100.00;101618.94;10457108;28;20011;-62
2023/07/13 17:49:05;;;;;;;;;;;;;;;20.19;100.00;101631.28;10456791;28;19931;-63
2023/07/13 17:54:13;;;;;;;;;;;;;;;20.11;100.00;101623.97;10456654;28;19935;-62
2023/07/13 17:59:16;;;;;;;;;;;;;;;19.93;100.00;101629.03;10456595;28;19924;-62
2023/07/13 18:04:22;;;;;;;;;;;;;;;19.97;100.00;101635.78;10456414;28;19924;-62
2023/07/13 18:09:29;;;;;;;;;;;;;;;19.82;100.00;101639.69;10439478;28;19925;-62
2023/07/13 18:14:35;;;;;;;;;;;;;;;19.71;100.00;101643.22;10456223;28;20344;-62
2023/07/13 18:19:39;;;;;;;;;;;;;;;19.64;100.00;101650.84;10456969;28;19932;-61
2023/07/13 18:24:41;;;;;;;;;;;;;;;19.54;100.00;101646.44;10439005;28;19925;-61
2023/07/13 18:29:45;;;;;;;;;;;;;;;19.45;100.00;101653.31;10455753;28;20011;-61
2023/07/13 18:34:48;;;;;;;;;;;;;;;19.31;100.00;101657.09;10456015;28;19931;-61
2023/07/13 18:39:51;;;;;;;;;;;;;;;19.26;100.00;101662.78;10438247;28;20283;-67
2023/07/13 18:44:56;;;;;;;;;;;;;;;19.24;100.00;101658.59;10441826;28;20338;-63
2023/07/13 18:49:58;;;;;;;;;;;;;;;19.19;100.00;101656.28;10463287;28;19967;-63
2023/07/13 18:55:01;;;;;;;;;;;;;;;19.19;100.00;101658.94;10462984;28;19947;-63
2023/07/13 19:00:03;;;;;;;;;;;;;;;19.02;100.00;101662.94;10462536;28;20007;-63
2023/07/13 19:05:12;;;;;;;;;;;;;;;18.69;100.00;101667.28;10462538;28;20020;-63
2023/07/13 19:10:18;;;;;;;;;;;;;;;18.42;100.00;101664.94;10444999;28;20274;-63
2023/07/13 19:15:31;;;;;;;;;;;;;;;18.28;100.00;101675.78;10444683;28;19924;-63
2023/07/13 19:20:33;;;;;;;;;;;;;;;18.36;100.00;101681.34;10444595;28;20283;-63
2023/07/13 19:25:35;;;;;;;;;;;;;;;18.19;100.00;101687.94;10461879;28;19932;-63
2023/07/13 19:30:37;;;;;;;;;;;;;;;18.08;100.00;101688.72;10462074;28;20562;-63
2023/07/13 19:35:43;;;;;;;;;;;;;;;18.21;100.00;101693.94;10461914;28;19967;-63
2023/07/13 19:40:45;;;;;;;;;;;;;;;17.94;100.00;101687.09;10462159;28;20007;-63
2023/07/13 19:45:47;;;;;;;;;;;;;;;18.03;100.00;101695.34;10461163;28;19925;-63
2023/07/13 19:50:49;;;;;;;;;;;;;;;17.92;100.00;101680.22;10460858;28;20015;-63
2023/07/13 19:55:52;;;;;;;;;;;;;;;17.82;100.00;101683.53;10460574;28;20287;-63
2023/07/13 20:00:55;;;;;;;;;;;;;;;17.68;100.00;101696.94;10460676;28;19925;-63
2023/07/13 20:05:58;;;;;;;;;;;;;;;17.61;100.00;101698.34;10460501;28;20382;-63
2023/07/13 20:11:00;;;;;;;;;;;;;;;17.53;100.00;101711.28;10467548;22;20019;-68
2023/07/13 20:16:03;;;;;;;;;;;;;;;17.41;100.00;101708.56;10459994;28;20290;-68
2023/07/13 20:21:07;;;;;;;;;;;;;;;17.52;100.00;101712.28;10459834;28;19924;-68
2023/07/13 20:26:09;;;;;;;;;;;;;;;17.32;100.00;101711.06;10458415;28;19931;-68
2023/07/13 20:31:12;;;;;;;;;;;;;;;17.18;100.00;101714.66;10458251;28;20458;-68
2023/07/13 20:36:15;;;;;;;;;;;;;;;16.94;100.00;101722.53;10459184;28;19978;-68
2023/07/13 20:41:17;;;;;;;;;;;;;;;16.92;100.00;101725.28;10459097;28;20012;-68
2023/07/13 20:46:19;;;;;;;;;;;;;;;16.72;100.00;101716.88;10458712;28;20466;-68
2023/07/13 20:51:22;;;;;;;;;;;;;;;16.79;100.00;101711.19;10457415;28;19924;-68
2023/07/13 20:56:26;;;;;;;;;;;;;;;16.73;100.00;101720.41;10458378;28;20367;-68
2023/07/13 21:01:31;;;;;;;;;;;;;;;16.59;100.00;101717.84;10457290;28;19931;-68
2023/07/13 21:06:33;;;;;;;;;;;;;;;16.69;100.00;101719.78;10456437;28;19932;-68
2023/07/13 21:11:36;;;;;;;;;;;;;;;16.63;100.00;101720.19;10456699;28;19924;-68
2023/07/13 21:16:38;;;;;;;;;;;;;;;16.59;100.00;101728.41;10457414;28;20363;-68
2023/07/13 21:21:40;;;;;;;;;;;;;;;16.58;100.00;101722.28;10457797;28;19929;-68
2023/07/13 21:26:42;;;;;;;;;;;;;;;16.44;100.00;101717.94;10457365;28;19924;-68
2023/07/13 21:31:45;;;;;;;;;;;;;;;16.36;100.00;101717.63;10457204;28;20402;-68
2023/07/13 21:36:47;;;;;;;;;;;;;;;16.28;100.00;101728.69;10457026;28;19954;-68
2023/07/13 21:41:49;;;;;;;;;;;;;;;16.29;100.00;101726.88;10457028;28;20390;-68
2023/07/13 21:46:51;;;;;;;;;;;;;;;16.25;100.00;101741.25;10456902;28;19925;-68
2023/07/13 21:51:54;;;;;;;;;;;;;;;16.31;100.00;101754.06;10456648;28;20015;-68
2023/07/13 21:56:56;;;;;;;;;;;;;;;16.32;100.00;101747.81;10455890;28;20003;-68
2023/07/13 22:01:58;;;;;;;;;;;;;;;16.32;100.00;101739.91;10456728;28;19932;-67
2023/07/13 22:07:01;;;;;;;;;;;;;;;16.35;100.00;101731.75;10456715;28;19925;-68
2023/07/13 22:12:04;;;;;;;;;;;;;;;16.22;100.00;101730.88;10456532;28;20015;-67
2023/07/13 22:17:08;;;;;;;;;;;;;;;16.24;100.00;101732.50;10459910;28;19924;-68
2023/07/13 22:22:10;;;;;;;;;;;;;;;16.23;100.00;101722.88;10463904;28;19974;-68
2023/07/13 22:27:13;;;;;;;;;;;;;;;16.01;100.00;101722.59;10464275;28;20011;-68
2023/07/13 22:32:16;;;;;;;;;;;;;;;16.09;100.00;101728.22;10464264;28;19924;-68
2023/07/13 22:37:18;;;;;;;;;;;;;;;16.39;100.00;101730.63;10479176;28;19954;-68
2023/07/13 22:42:20;;;;;;;;;;;;;;;16.63;100.00;101736.03;10463043;28;19925;-68
2023/07/13 22:47:23;;;;;;;;;;;;;;;16.96;100.00;101732.03;10463349;28;20368;-68
2023/07/13 22:52:25;;;;;;;;;;;;;;;17.06;100.00;101727.81;10463215;28;19959;-67
2023/07/13 22:57:27;;;;;;;;;;;;;;;17.23;100.00;101724.00;10463193;28;19925;-67
2023/07/13 23:02:29;;;;;;;;;;;;;;;16.75;100.00;101718.50;10461582;28;19939;-66
2023/07/13 23:07:34;;;;;;;;;;;;;;;16.59;100.00;101718.69;10445037;28;20375;-67
2023/07/13 23:12:36;;;;;;;;;;;;;;;16.31;100.00;101717.91;10462319;28;19931;-66
2023/07/13 23:17:39;;;;;;;;;;;;;;;16.65;100.00;101712.16;10462175;28;20398;-67
2023/07/13 23:22:41;;;;;;;;;;;;;;;16.31;100.00;101715.28;10462109;28;20012;-67
2023/07/13 23:27:43;;;;;;;;;;;;;;;16.11;100.00;101719.25;10460623;28;19925;-67
2023/07/13 23:32:46;;;;;;;;;;;;;;;16.07;100.00;101715.13;10461088;28;19925;-67
2023/07/13 23:37:49;;;;;;;;;;;;;;;15.97;100.00;101721.97;10460296;28;19925;-68
2023/07/13 23:42:51;;;;;;;;;;;;;;;15.97;100.00;101719.31;10476511;28;20368;-67
2023/07/13 23:47:54;;;;;;;;;;;;;;;15.88;100.00;101719.91;10461271;28;19968;-67
2023/07/13 23:52:56;;;;;;;;;;;;;;;15.64;100.00;101711.75;10459938;28;20004;-67
2023/07/13 23:57:59;;;;;;;;;;;;;;;15.73;100.00;101705.88;10460928;28;20024;-67
